createdAt,value
2019-02-22T00:02:40.295Z,52.83
2019-02-22T00:06:43.663Z,57.15
2019-02-22T00:10:47.164Z,58.55
2019-02-22T00:14:50.543Z,51.13
2019-02-22T00:18:53.939Z,53.45
2019-02-22T00:22:57.319Z,58.08
2019-02-22T00:27:00.821Z,54.70
2019-02-22T00:31:04.195Z,65.20
2019-02-22T00:35:07.660Z,65.60
2019-02-22T00:39:11.102Z,65.60
2019-02-22T00:43:14.470Z,59.25
2019-02-22T00:47:17.840Z,66.60
2019-02-22T00:51:21.223Z,70.22
2019-02-22T00:55:24.616Z,78.25
2019-02-22T00:59:28.027Z,84.90
2019-02-22T01:03:31.399Z,88.50
2019-02-22T01:07:34.777Z,94.83
2019-02-22T01:11:38.172Z,104.55
2019-02-22T01:15:41.574Z,101.78
2019-02-22T01:19:44.970Z,115.43
2019-02-22T01:23:48.274Z,127.82
2019-02-22T01:27:51.671Z,127.65
2019-02-22T01:31:55.066Z,130.63
2019-02-22T01:35:58.471Z,139.40
2019-02-22T01:40:01.847Z,151.30
2019-02-22T01:44:05.255Z,133.65
2019-02-22T01:48:08.624Z,132.90
2019-02-22T01:52:12.008Z,118.80
2019-02-22T01:56:15.404Z,125.35
2019-02-22T02:00:19.051Z,132.97
2019-02-22T02:04:22.434Z,113.90
2019-02-22T02:08:25.825Z,112.77
2019-02-22T02:12:29.219Z,114.08
2019-02-22T02:16:32.622Z,107.57
2019-02-22T02:20:36.001Z,126.20
2019-02-22T02:24:39.383Z,104.57
2019-02-22T02:28:42.762Z,111.03
2019-02-22T02:32:46.174Z,106.70
2019-02-22T02:36:49.567Z,109.35
2019-02-22T02:40:52.944Z,116.08
2019-02-22T02:44:56.326Z,107.05
2019-02-22T02:48:59.707Z,92.65
2019-02-22T02:53:03.012Z,99.87
2019-02-22T02:57:06.429Z,101.82
2019-02-22T03:01:09.796Z,104.72
2019-02-22T03:05:13.174Z,101.92
2019-02-22T03:09:16.649Z,105.78
2019-02-22T03:13:20.027Z,95.97
2019-02-22T03:17:23.407Z,104.32
2019-02-22T03:21:26.791Z,102.92
2019-02-22T03:25:30.704Z,102.12
2019-02-22T03:29:34.087Z,107.55
2019-02-22T03:33:37.478Z,105.85
2019-02-22T03:37:40.872Z,93.63
2019-02-22T03:41:44.247Z,103.32
2019-02-22T03:45:47.634Z,87.37
2019-02-22T03:49:51.018Z,89.55
2019-02-22T03:53:57.395Z,95.60
2019-02-22T03:57:59.914Z,97.20
2019-02-22T04:02:03.280Z,95.42
2019-02-22T04:06:06.660Z,90.25
2019-02-22T04:10:10.066Z,90.53
2019-02-22T04:14:13.499Z,85.30
2019-02-22T04:18:16.899Z,89.28
2019-02-22T04:22:20.295Z,79.58
2019-02-22T04:26:23.678Z,85.57
2019-02-22T04:30:27.051Z,89.72
2019-02-22T04:34:30.497Z,84.97
2019-02-22T04:38:33.826Z,79.05
2019-02-22T04:42:37.195Z,75.40
2019-02-22T04:46:40.597Z,66.25
2019-02-22T04:50:43.971Z,75.87
2019-02-22T04:54:47.354Z,67.62
2019-02-22T04:58:50.744Z,72.58
2019-02-22T05:02:54.119Z,63.73
2019-02-22T05:06:57.496Z,65.03
2019-02-22T05:11:00.887Z,72.62
2019-02-22T05:15:12.700Z,45.40
2019-02-22T05:19:10.659Z,36.15
2019-02-22T05:23:14.022Z,40.00
2019-02-22T05:27:17.716Z,37.73
2019-02-22T05:31:21.097Z,28.95
2019-02-22T05:35:24.491Z,24.23
2019-02-22T05:39:27.876Z,23.73
2019-02-22T05:43:31.338Z,27.25
2019-02-22T05:47:34.757Z,20.32
2019-02-22T05:51:38.175Z,20.15
2019-02-22T05:55:44.069Z,18.17
2019-02-22T05:59:46.564Z,14.60
2019-02-22T06:03:49.935Z,18.42
2019-02-22T06:07:53.311Z,23.65
2019-02-22T06:11:56.690Z,19.75
2019-02-22T06:16:00.080Z,19.62
2019-02-22T06:20:08.767Z,23.92
2019-02-22T06:24:12.209Z,26.40
2019-02-22T06:28:15.599Z,21.33
2019-02-22T06:32:18.972Z,21.85
2019-02-22T06:36:22.352Z,19.45
2019-02-22T06:40:26.306Z,20.68
2019-02-22T06:44:29.647Z,21.40
2019-02-22T06:48:33.105Z,29.47
2019-02-22T06:52:36.496Z,21.33
2019-02-22T06:56:39.883Z,21.57
2019-02-22T07:00:43.259Z,19.87
2019-02-22T07:04:46.649Z,22.37
2019-02-22T07:08:50.023Z,20.35
2019-02-22T07:12:56.959Z,21.23
2019-02-22T07:17:00.108Z,15.65
2019-02-22T07:21:03.491Z,9.78
2019-02-22T07:25:09.793Z,9.90
2019-02-22T07:29:13.175Z,10.20
2019-02-22T07:33:16.561Z,9.40
2019-02-22T07:37:19.926Z,9.00
2019-02-22T07:41:23.316Z,11.00
2019-02-22T07:45:26.677Z,13.38
2019-02-22T07:49:30.167Z,11.78
2019-02-22T07:53:53.300Z,11.03
2019-02-22T07:57:56.687Z,14.53
2019-02-22T08:02:00.062Z,13.03
2019-02-22T08:06:03.482Z,14.95
2019-02-22T08:10:06.838Z,13.10
2019-02-22T08:14:10.208Z,13.13
2019-02-22T08:18:13.585Z,13.38
2019-02-22T08:22:16.971Z,14.28
2019-02-22T08:26:20.370Z,9.50
2019-02-22T08:30:23.755Z,8.75
2019-02-22T08:34:27.142Z,7.92
2019-02-22T08:38:30.515Z,9.65
2019-02-22T08:42:33.890Z,5.58
2019-02-22T08:46:37.287Z,8.23
2019-02-22T08:50:40.654Z,9.25
2019-02-22T08:54:47.030Z,6.60
2019-02-22T08:58:49.063Z,5.47
2019-02-22T09:02:52.443Z,11.22
2019-02-22T09:06:55.860Z,6.72
2019-02-22T09:11:00.760Z,5.17
2019-02-22T09:15:05.043Z,6.03
2019-02-22T09:19:08.332Z,5.85
2019-02-22T09:23:11.707Z,8.08
2019-02-22T09:27:15.253Z,4.92
2019-02-22T09:31:18.703Z,6.13
2019-02-22T09:35:22.074Z,3.60
2019-02-22T09:39:25.604Z,6.15
2019-02-22T09:43:28.956Z,7.03
2019-02-22T09:47:32.365Z,6.67
2019-02-22T09:51:35.810Z,4.15
2019-02-22T09:55:39.106Z,7.67
2019-02-22T09:59:42.491Z,5.08
2019-02-22T10:03:45.867Z,6.67
2019-02-22T10:07:49.322Z,6.42
2019-02-22T10:11:52.694Z,3.90
2019-02-22T10:15:56.304Z,6.42
2019-02-22T10:20:01.530Z,1.98
2019-02-22T10:24:04.706Z,5.08
2019-02-22T10:28:17.273Z,5.67
2019-02-22T10:32:15.837Z,4.93
2019-02-22T10:36:18.480Z,4.47
2019-02-22T10:40:21.856Z,3.02
2019-02-22T10:44:25.679Z,1.50
2019-02-22T10:48:29.090Z,5.35
2019-02-22T10:52:32.472Z,4.33
2019-02-22T10:56:35.859Z,5.37
2019-02-22T11:00:39.227Z,5.05
2019-02-22T11:04:42.547Z,7.87
2019-02-22T11:08:45.931Z,4.83
2019-02-22T11:12:49.293Z,4.65
2019-02-22T11:16:52.672Z,5.03
2019-02-22T11:20:56.930Z,8.70
2019-02-22T11:25:00.329Z,2.98
2019-02-22T11:29:03.688Z,3.17
2019-02-22T11:33:07.055Z,3.72
2019-02-22T11:37:10.552Z,4.95
2019-02-22T11:41:13.915Z,1.85
2019-02-22T11:45:17.286Z,6.37
2019-02-22T11:49:20.657Z,5.20
2019-02-22T11:53:24.136Z,7.53
2019-02-22T11:57:27.520Z,4.40
2019-02-22T12:01:30.891Z,4.03
2019-02-22T12:05:34.262Z,4.45
2019-02-22T12:09:37.631Z,3.20
2019-02-22T12:13:40.995Z,3.35
2019-02-22T12:17:44.372Z,5.75
2019-02-22T12:21:47.744Z,5.03
2019-02-22T12:25:51.113Z,1.90
2019-02-22T12:29:54.503Z,8.00
2019-02-22T12:33:57.871Z,3.80
2019-02-22T12:38:01.259Z,5.15
2019-02-22T12:42:04.664Z,4.80
2019-02-22T12:46:08.036Z,5.90
2019-02-22T12:50:12.263Z,5.08
2019-02-22T12:54:16.534Z,5.08
2019-02-22T12:58:19.902Z,4.22
2019-02-22T13:02:23.291Z,11.45
2019-02-22T13:06:26.675Z,4.75
2019-02-22T13:10:30.066Z,2.62
2019-02-22T13:14:33.438Z,6.17
2019-02-22T13:18:36.856Z,2.62
2019-02-22T13:22:40.227Z,3.27
2019-02-22T13:26:43.612Z,6.22
2019-02-22T13:30:46.981Z,5.50
2019-02-22T13:34:50.364Z,3.58
2019-02-22T13:38:53.783Z,8.78
2019-02-22T13:42:57.151Z,6.08
2019-02-22T13:47:00.482Z,6.70
2019-02-22T13:51:03.871Z,6.90
2019-02-22T13:55:08.186Z,4.12
2019-02-22T13:59:11.555Z,6.60
2019-02-22T14:03:14.926Z,8.58
2019-02-22T14:07:18.330Z,5.20
2019-02-22T14:11:21.749Z,5.00
2019-02-22T14:15:25.112Z,13.15
2019-02-22T14:19:28.504Z,7.55
2019-02-22T14:23:31.850Z,7.45
2019-02-22T14:27:35.240Z,5.10
2019-02-22T14:31:38.634Z,6.20
2019-02-22T14:35:42.010Z,9.30
2019-02-22T14:39:45.383Z,5.40
2019-02-22T14:43:48.756Z,7.85
2019-02-22T14:47:52.138Z,7.42
2019-02-22T14:51:55.534Z,7.62
2019-02-22T14:55:59.873Z,5.70
2019-02-22T15:00:05.199Z,9.73
2019-02-22T15:04:08.590Z,6.58
2019-02-22T15:08:11.958Z,10.60
2019-02-22T15:12:15.367Z,7.47
2019-02-22T15:16:29.251Z,6.45
2019-02-22T15:20:32.630Z,8.23
2019-02-22T15:24:36.015Z,6.97
2019-02-22T15:28:39.396Z,8.70
2019-02-22T15:32:42.796Z,10.07
2019-02-22T15:36:46.181Z,10.75
2019-02-22T15:40:49.574Z,9.40
2019-02-22T15:44:52.924Z,10.82
2019-02-22T15:48:56.407Z,11.05
2019-02-22T15:52:59.797Z,6.53
2019-02-22T15:57:03.162Z,8.40
2019-02-22T16:01:06.551Z,11.83
2019-02-22T16:05:11.568Z,11.78
2019-02-22T16:09:14.930Z,7.17
2019-02-22T16:13:18.318Z,9.20
2019-02-22T16:17:21.750Z,6.53
2019-02-22T16:21:25.121Z,9.10
2019-02-22T16:25:28.482Z,7.78
2019-02-22T16:29:31.858Z,10.10
2019-02-22T16:33:35.499Z,10.48
2019-02-22T16:37:38.866Z,10.43
2019-02-22T16:41:42.242Z,12.03
2019-02-22T16:45:45.624Z,9.95
2019-02-22T16:49:49.016Z,8.58
2019-02-22T16:53:52.383Z,9.13
2019-02-22T16:57:55.750Z,10.23
2019-02-22T17:01:59.130Z,11.10
2019-02-22T17:06:02.574Z,8.88
2019-02-22T17:10:08.701Z,12.13
2019-02-22T17:14:12.115Z,15.25
2019-02-22T17:18:15.523Z,11.97
2019-02-22T17:22:18.874Z,18.85
2019-02-22T17:26:22.176Z,9.20
2019-02-22T17:30:25.557Z,9.65
2019-02-22T17:34:28.932Z,17.50
2019-02-22T17:38:32.339Z,10.13
2019-02-22T17:42:35.725Z,14.33
2019-02-22T17:46:39.088Z,13.60
2019-02-22T17:50:42.459Z,9.35
2019-02-22T17:54:45.831Z,10.23
2019-02-22T17:58:49.189Z,9.30
2019-02-22T18:02:52.496Z,18.42
2019-02-22T18:06:55.866Z,7.03
2019-02-22T18:10:59.241Z,27.30
2019-02-22T18:15:02.639Z,47.78
2019-02-22T18:19:06.030Z,125.30
2019-02-22T18:23:09.419Z,77.10
2019-02-22T18:27:12.874Z,70.03
2019-02-22T18:31:16.222Z,16.82
2019-02-22T18:35:19.615Z,15.28
2019-02-22T18:39:22.989Z,13.95
2019-02-22T18:43:26.416Z,18.23
2019-02-22T18:47:29.778Z,18.15
2019-02-22T18:51:33.162Z,11.60
2019-02-22T18:55:36.534Z,12.10
2019-02-22T18:59:39.918Z,11.25
2019-02-22T19:03:43.290Z,11.63
2019-02-22T19:07:46.695Z,13.47
2019-02-22T19:11:50.067Z,16.15
2019-02-22T19:15:53.435Z,15.25
2019-02-22T19:19:56.883Z,27.17
2019-02-22T19:24:00.261Z,25.15
2019-02-22T19:28:03.635Z,22.13
2019-02-22T19:32:07.014Z,20.12
2019-02-22T19:36:10.407Z,11.03
2019-02-22T19:40:19.678Z,11.20
2019-02-22T19:44:23.157Z,12.05
2019-02-22T19:48:26.539Z,13.13
2019-02-22T19:52:29.918Z,12.20
2019-02-22T19:56:33.373Z,16.77
2019-02-22T20:00:36.768Z,12.53
2019-02-22T20:04:40.166Z,9.28
2019-02-22T20:08:43.546Z,10.50
2019-02-22T20:12:46.936Z,11.45
2019-02-22T20:16:50.467Z,12.03
2019-02-22T20:20:53.883Z,17.12
2019-02-22T20:24:57.265Z,9.28
2019-02-22T20:29:00.650Z,12.07
2019-02-22T20:33:04.053Z,10.20
2019-02-22T20:37:07.488Z,14.07
2019-02-22T20:41:10.927Z,11.38
2019-02-22T20:45:14.303Z,12.58
2019-02-22T20:49:17.695Z,12.18
2019-02-22T20:53:21.206Z,9.83
2019-02-22T20:57:24.597Z,14.55
2019-02-22T21:01:27.962Z,14.43
2019-02-22T21:05:31.347Z,11.78
2019-02-22T21:09:34.756Z,11.08
2019-02-22T21:13:38.130Z,11.75
2019-02-22T21:17:41.523Z,9.80
2019-02-22T21:21:44.883Z,11.85
2019-02-22T21:25:48.460Z,11.25
2019-02-22T21:29:51.875Z,14.80
2019-02-22T21:33:55.267Z,17.17
2019-02-22T21:37:58.650Z,12.75
2019-02-22T21:42:02.054Z,10.03
2019-02-22T21:46:05.464Z,12.18
2019-02-22T21:50:16.034Z,13.32
2019-02-22T21:54:19.341Z,9.58
2019-02-22T21:58:22.711Z,9.55
2019-02-22T22:02:26.079Z,11.57
2019-02-22T22:06:29.463Z,10.78
2019-02-22T22:10:32.842Z,10.13
2019-02-22T22:14:36.211Z,12.87
2019-02-22T22:18:39.594Z,12.63
2019-02-22T22:22:42.908Z,9.30
2019-02-22T22:26:46.355Z,10.23
2019-02-22T22:30:49.722Z,14.05
2019-02-22T22:34:53.131Z,7.58
2019-02-22T22:38:56.852Z,9.50
2019-02-22T22:43:00.187Z,8.50
2019-02-22T22:47:03.574Z,9.75
2019-02-22T22:51:06.935Z,8.45
2019-02-22T22:55:10.972Z,9.00
2019-02-22T22:59:14.342Z,8.98
2019-02-22T23:03:17.802Z,8.73
2019-02-22T23:07:21.206Z,7.12
2019-02-22T23:11:24.595Z,7.47
2019-02-22T23:15:27.993Z,8.63
2019-02-22T23:19:31.354Z,9.10
2019-02-22T23:23:34.933Z,9.55
2019-02-22T23:27:38.327Z,8.03
2019-02-22T23:31:41.739Z,11.20
2019-02-22T23:35:45.130Z,7.22
2019-02-22T23:39:48.475Z,8.95
2019-02-22T23:43:51.866Z,7.25
2019-02-22T23:47:55.275Z,10.95
2019-02-22T23:51:58.679Z,9.28
2019-02-22T23:56:02.067Z,8.83
